• Join FlightAware (Why Join?)
  • Login
  • US Flag 
12:01PM EDT


 

Airport Tracker/Info


-or-


 

Live Flight TrackerFlight Track Log ✈ N135FL ✈ 11-Jul-2013 ✈ KGNV - KPNS

Flight Track Log - Related Links

Times and Time Zones

All times are in EDT time to prevent confusion due to time zone crossing. See the N135FL flight status page for this flight to view local times or setup timezone preferences in your user account.

Time Position Orientation Groundspeed Altitude Reporting Facility
EDT Latitude Longitude Course Direction KTS MPH feet Rate Location/Type
09:59PM 29.7714 -82.7548 284° West  Level FlightAware Approximate
10:02PM 29.8137 -82.9990 281° West  Level FlightAware Approximate
10:03PM 29.8274 -83.0808 281° West  Level FlightAware Approximate
10:04PM 29.8409 -83.1627 281° West  Level FlightAware Approximate
10:05PM 29.8542 -83.2446 281° West  Level FlightAware Approximate
10:06PM 29.8674 -83.3266 281° West  Level FlightAware Approximate
10:07PM 29.8807 -83.4085 281° West  Level FlightAware Approximate
10:08PM 29.8938 -83.4905 281° West  Level FlightAware Approximate
10:09PM 29.9069 -83.5725 280° West  Level FlightAware Approximate
10:10PM 29.9200 -83.6545 280° West  Level FlightAware Approximate
10:11PM 29.9330 -83.7366 280° West  Level FlightAware Approximate
10:12PM 29.9460 -83.8186 280° West  Level FlightAware Approximate
10:13PM 29.9589 -83.9007 280° West  Level FlightAware Approximate
10:14PM 29.9721 -83.9828 281° West  Level FlightAware Approximate
10:14PM 29.7103 -82.3928 281° West 153 176 2,900  Level Jacksonville Center
10:15PM 29.9855 -84.0648 281° West  Level FlightAware Approximate
10:15PM 29.7186 -82.4333 283° West 172 198 3,000  Level Jacksonville Center
10:16PM 29.9989 -84.1468 281° West  Level FlightAware Approximate
10:16PM 29.7292 -82.4764 286° West 174 200 4,000  Level Jacksonville Center
10:17PM 30.0123 -84.2289 281° West  Level FlightAware Approximate
10:17PM 29.7397 -82.5147 288° West 180 207 5,000  Level Jacksonville Center
10:18PM 30.0256 -84.3109 281° West  Level FlightAware Approximate
10:18PM 29.7503 -82.5600 285° West 168 193 6,200  Level Jacksonville Center
10:19PM 30.0388 -84.3930 281° West  Level FlightAware Approximate
10:19PM 29.7567 -82.6031 280° West 150 173 7,400  Level Jacksonville Center
10:20PM 30.0520 -84.4751 281° West  Level FlightAware Approximate
10:20PM 29.7611 -82.6486 276° West 150 173 8,500  Level Jacksonville Center
10:21PM 29.7675 -82.7011 278° West 155 178 9,700 1,140 Climbing Jacksonville Center
10:22PM 29.7778 -82.7514 283° West 161 185 10,800 1,140 Climbing Jacksonville Center
10:23PM 29.7842 -82.7992 279° West 161 185 12,000 1,200 Climbing Jacksonville Center
10:24PM 29.7883 -82.8447 276° West 155 178 13,200 900 Climbing Jacksonville Center
10:25PM 29.8008 -82.8972 285° West 161 185 13,900 360 Climbing Jacksonville Center
10:26PM 29.8114 -82.9619 281° West 184 212 14,000  Climbing Jacksonville Center
10:27PM 29.8217 -83.0242 281° West 199 229 14,000  Level Jacksonville Center
10:28PM 29.8364 -83.0914 284° West 210 242 14,000  Level Jacksonville Center
10:29PM 29.8486 -83.1558 282° West 210 242 14,000  Level Jacksonville Center
10:30PM 29.8631 -83.2231 284° West 215 247 14,000  Level Jacksonville Center
10:31PM 29.8775 -83.2975 283° West 220 253 14,000  Level Jacksonville Center
10:32PM 29.8897 -83.3622 282° West 220 253 14,000  Level Jacksonville Center
10:33PM 29.9042 -83.4292 284° West 220 253 14,000  Level Jacksonville Center
10:34PM 29.9164 -83.4964 282° West 220 253 14,000  Level Jacksonville Center
10:35PM 29.9286 -83.5611 282° West 220 253 14,000  Level Jacksonville Center
10:36PM 29.9428 -83.6261 284° West 220 253 14,000  Level Jacksonville Center
10:37PM 29.9550 -83.6933 282° West 220 253 14,000  Level Jacksonville Center
10:38PM 29.9672 -83.7606 282° West 220 253 14,000  Level Jacksonville Center
10:39PM 29.9792 -83.8253 282° West 220 253 14,000  Level Jacksonville Center
10:40PM 29.9911 -83.8950 281° West 220 253 14,000  Level Jacksonville Center
10:41PM 30.0031 -83.9600 282° West 220 253 14,000  Level Jacksonville Center
10:42PM 30.0131 -84.0272 280° West 220 253 14,000  Level Jacksonville Center
10:43PM 30.0228 -84.0969 279° West 220 253 14,000  Level Jacksonville Center
10:44PM 30.0369 -84.1619 284° West 220 253 14,000  Level Jacksonville Center
10:45PM 30.0467 -84.2244 280° West 220 253 14,000  Level Jacksonville Center
10:46PM 30.0564 -84.2917 280° West 215 247 14,000  Level Jacksonville Center
10:47PM 30.0681 -84.3589 281° West 222 255 14,000  Level Jacksonville Center
10:48PM 30.0778 -84.4239 280° West 222 255 14,000  Level Jacksonville Center
10:49PM 30.0894 -84.4914 281° West 222 255 14,000  Level Jacksonville Center
10:50PM 30.0992 -84.5589 279° West 222 255 14,000  Level Jacksonville Center
10:51PM 30.1106 -84.6286 281° West 222 255 14,000  Level Jacksonville Center
10:52PM 30.1222 -84.6961 281° West 222 255 14,000  Level Jacksonville Center
10:53PM 30.1339 -84.7611 282° West 222 255 14,000  Level Jacksonville Center
10:54PM 30.1475 -84.8311 283° West 222 255 14,000  Level Jacksonville Center
10:55PM 30.1589 -84.8986 281° West 222 255 14,000  Level Jacksonville Center
10:56PM 30.1683 -84.9658 279° West 222 255 14,000  Level Jacksonville Center
10:57PM 30.1797 -85.0358 281° West 222 255 14,000  Level Jacksonville Center
10:58PM 30.1889 -85.1033 279° West 222 255 14,000  Level Jacksonville Center
10:59PM 30.2003 -85.1708 281° West 222 255 14,000  Level Jacksonville Center
11:00PM 30.2072 -85.2433 276° West 222 255 14,000  Level Jacksonville Center
11:01PM 30.2164 -85.3108 279° West 222 255 14,000  Level Jacksonville Center
11:02PM 30.2233 -85.3806 277° West 222 255 14,000  Level Jacksonville Center
11:03PM 30.2306 -85.4506 277° West 222 255 14,000  Level Jacksonville Center
11:04PM 30.2375 -85.5181 277° West 227 261 14,000  Level Jacksonville Center
11:05PM 30.2464 -85.5881 278° West 219 252 14,000  Level Jacksonville Center
11:06PM 30.2553 -85.6581 278° West 219 252 14,000  Level Jacksonville Center
11:07PM 30.2644 -85.7231 279° West 219 252 14,000  Level Jacksonville Center
11:08PM 30.2731 -85.8003 277° West 219 252 14,000  Level Jacksonville Center
11:09PM 30.2819 -85.8681 279° West 219 252 14,000  Level Jacksonville Center
11:10PM 30.2950 -85.9358 283° West 219 252 14,000 -240 Level Jacksonville Center
11:11PM 30.3036 -86.0058 278° West 219 252 13,600 -480 Descending Jacksonville Center
11:12PM 30.3144 -86.0758 280° West 224 258 13,100 -540 Descending Jacksonville Center
11:13PM 30.3250 -86.1508 279° West 224 258 12,600 -480 Descending Jacksonville Center
11:15PM 30.3307 -86.2304 275° West  Level FlightAware Approximate
11:19PM 30.3881 -86.5936 286° West 213 245 9,900  Level Jacksonville Center
11:21PM 30.3833 -86.6850 267° West 197 227 8,300 -1,200 Descending Jacksonville Center
11:22PM 30.3822 -86.5825 279° West  Level FlightAware Approximate
11:22PM 30.3733 -86.7447 259° West 185 213 7,100  Level Jacksonville Center
11:23PM 30.3889 -86.6329 279° West  Level FlightAware Approximate
11:23PM 30.3653 -86.8022 261° West 177 204 6,100  Level Jacksonville Center
11:24PM 30.3956 -86.6833 279° West  Level FlightAware Approximate
11:24PM 30.3783 -86.8533 287° West 170 196 4,900  Level Jacksonville Center
11:25PM 30.4042 -86.7332 286° West  Level FlightAware Approximate
11:25PM 30.3914 -86.9044 287° West 162 186 3,900  Level Jacksonville Center
11:26PM 30.4106 -86.9556 294° West 162 186 2,800 -960 Descending Jacksonville Center
11:27PM 30.4278 -87.0022 293° West 158 182 1,900 -540 Descending Jacksonville Center
11:28PM 30.4453 -87.0464 295° West 137 158 1,700 -120 Descending Jacksonville Center
11:29PM 30.4628 -87.0856 297° West 137 158 1,700 -60 Level Jacksonville Center
11:30PM 30.4758 -87.1294 289° West 134 154 1,600 -660 Descending Jacksonville Center
11:31PM 30.4744 -87.1706 268° West 127 146 400 -1,200 Descending Jacksonville Center
11:33PM 30.4667 -87.1833 283° West  Level FlightAware Approximate
11:40PM 30.4734 -87.1866 283° West  Level Estimated